Time;durP1;ratioP1;P1;durP2;ratioP2;P2;SDS_P1;SDS_P2;PMS_P1;PMS_P2;Temp;Humidity;BMP_temperature;BMP_pressure;BME280_temperature;BME280_humidity;BME280_pressure;Samples;Min_cycle;Max_cycle;Signal;HPM_P1;HPM_P2
2022/08/07 00:01:19;;;;;;;;;6.67;6.00;;;;;22.42;36.63;102178.50;5084094;27;45524;-68
2022/08/07 00:03:46;;;;;;;;;6.00;6.00;;;;;22.40;36.47;102183.38;5095102;27;45385;-68
2022/08/07 00:06:11;;;;;;;;;5.00;5.00;;;;;22.23;37.03;102182.69;5083742;27;45623;-68
2022/08/07 00:08:37;;;;;;;;;7.25;6.50;;;;;22.26;36.68;102187.00;5093278;27;45731;-68
2022/08/07 00:11:06;;;;;;;;;9.33;9.33;;;;;21.94;37.58;102185.38;5081855;28;45395;-69
2022/08/07 00:13:33;;;;;;;;;7.67;7.00;;;;;22.02;36.93;102190.88;5092836;27;45353;-68
2022/08/07 00:15:59;;;;;;;;;7.00;7.00;;;;;22.03;37.46;102187.06;5083051;27;45386;-68
2022/08/07 00:18:27;;;;;;;;;7.33;6.67;;;;;22.09;37.17;102175.22;5088992;27;45662;-68
2022/08/07 00:20:55;;;;;;;;;9.33;6.67;;;;;22.03;37.77;102181.53;5096102;27;45305;-68
2022/08/07 00:23:21;;;;;;;;;10.33;10.33;;;;;21.97;37.84;102182.28;5095618;27;46494;-69
2022/08/07 00:25:47;;;;;;;;;10.00;9.33;;;;;21.90;37.35;102175.75;5096425;27;45334;-68
2022/08/07 00:28:13;;;;;;;;;7.67;6.00;;;;;21.79;37.41;102167.91;5098211;27;45468;-68
2022/08/07 00:30:38;;;;;;;;;2.00;2.00;;;;;21.72;37.76;102176.94;5093529;27;45608;-68
2022/08/07 00:33:04;;;;;;;;;6.67;6.67;;;;;21.73;37.85;102166.75;5094112;27;45365;-68
2022/08/07 00:35:29;;;;;;;;;5.67;5.67;;;;;21.71;38.50;102169.69;5092408;27;45367;-68
2022/08/07 00:37:55;;;;;;;;;5.00;5.00;;;;;21.77;37.80;102165.31;5087728;27;45514;-68
2022/08/07 00:40:20;;;;;;;;;6.67;6.67;;;;;21.66;38.31;102163.88;5093897;27;45334;-68
2022/08/07 00:42:46;;;;;;;;;4.00;4.00;;;;;21.66;38.44;102161.09;5092979;27;45328;-69
2022/08/07 00:45:12;;;;;;;;;7.00;6.00;;;;;21.62;38.28;102154.25;5085021;28;47101;-69
2022/08/07 00:47:38;;;;;;;;;4.67;4.67;;;;;21.63;38.46;102150.41;5084513;27;45429;-68
2022/08/07 00:50:04;;;;;;;;;5.00;5.00;;;;;21.60;38.06;102148.03;5087385;27;45253;-69
2022/08/07 00:52:30;;;;;;;;;5.00;5.00;;;;;21.62;38.58;102150.63;5089074;27;45553;-69
2022/08/07 00:54:55;;;;;;;;;6.67;6.67;;;;;21.63;38.17;102153.16;5087902;27;45441;-69
2022/08/07 00:57:22;;;;;;;;;5.33;4.33;;;;;21.57;38.87;102153.06;5096127;27;45621;-68
2022/08/07 00:59:48;;;;;;;;;5.67;4.67;;;;;21.58;38.96;102141.81;5100608;27;45344;-68
2022/08/07 01:02:13;;;;;;;;;6.00;4.33;;;;;21.34;39.49;102130.97;5102145;27;45321;-68
2022/08/07 01:04:38;;;;;;;;;4.00;4.00;;;;;21.33;39.15;102141.16;5094089;27;46654;-68
2022/08/07 01:07:04;;;;;;;;;5.00;4.00;;;;;21.27;39.84;102136.38;5087358;27;45423;-68
2022/08/07 01:09:31;;;;;;;;;3.67;3.67;;;;;21.36;39.24;102139.94;5097079;27;45428;-68
2022/08/07 01:11:57;;;;;;;;;4.33;4.33;;;;;21.29;39.52;102134.28;5087900;27;45491;-68
2022/08/07 01:14:24;;;;;;;;;4.00;4.00;;;;;21.23;40.34;102136.94;5086974;27;45426;-68
2022/08/07 01:16:51;;;;;;;;;5.00;5.00;;;;;21.17;40.46;102135.78;5091095;27;45395;-68
2022/08/07 01:19:17;;;;;;;;;8.00;4.33;;;;;21.13;40.59;102139.91;5092794;27;45432;-68
2022/08/07 01:21:43;;;;;;;;;4.00;4.00;;;;;21.08;40.62;102136.84;5068825;27;45653;-68
2022/08/07 01:24:10;;;;;;;;;5.00;4.00;;;;;21.02;40.44;102121.00;5095359;27;45319;-68
2022/08/07 01:26:35;;;;;;;;;4.00;4.00;;;;;21.09;40.93;102130.28;5070548;27;45298;-68
2022/08/07 01:29:01;;;;;;;;;5.00;5.00;;;;;21.01;41.06;102127.56;5094906;27;45397;-68
2022/08/07 01:31:30;;;;;;;;;4.00;4.00;;;;;21.08;40.85;102131.31;5090254;27;45388;-68
2022/08/07 01:33:57;;;;;;;;;5.00;5.00;;;;;21.12;40.78;102137.31;5098704;27;45402;-69
2022/08/07 01:36:24;;;;;;;;;3.67;3.67;;;;;20.96;41.86;102128.13;5073055;28;45413;-68
2022/08/07 01:38:49;;;;;;;;;3.67;3.67;;;;;20.94;41.33;102129.34;5076687;27;45370;-68
2022/08/07 01:41:17;;;;;;;;;3.00;3.00;;;;;20.88;41.87;102130.94;5088677;27;45437;-69
2022/08/07 01:43:43;;;;;;;;;5.00;5.00;;;;;20.72;41.82;102135.69;5092359;27;45466;-69
2022/08/07 01:46:08;;;;;;;;;6.00;6.00;;;;;20.77;42.00;102134.09;5091182;27;45334;-68
2022/08/07 01:48:34;;;;;;;;;3.00;3.00;;;;;20.80;42.03;102144.78;5089540;27;45539;-69
2022/08/07 01:51:07;;;;;;;;;3.00;3.00;;;;;20.84;41.80;102126.81;5090904;27;45339;-69
2022/08/07 01:53:34;;;;;;;;;4.00;4.00;;;;;20.90;41.88;102137.13;5090145;27;46544;-66
2022/08/07 01:56:04;;;;;;;;;3.67;3.67;;;;;20.80;42.56;102133.75;5093718;27;45452;-66
2022/08/07 01:58:35;;;;;;;;;2.67;2.67;;;;;20.87;42.15;102134.75;5098877;27;45324;-66
2022/08/07 02:01:06;;;;;;;;;5.00;5.00;;;;;20.87;42.04;102129.22;5100820;27;45623;-66
2022/08/07 02:03:34;;;;;;;;;5.00;5.00;;;;;20.73;42.75;102132.75;5092479;27;46410;-66
2022/08/07 02:06:06;;;;;;;;;4.33;4.00;;;;;20.88;41.72;102125.41;5085209;27;45240;-66
2022/08/07 02:08:36;;;;;;;;;5.00;5.00;;;;;20.72;43.10;102133.78;5092138;27;45298;-66
2022/08/07 02:11:03;;;;;;;;;5.00;5.00;;;;;20.79;42.75;102126.50;5089222;27;45322;-66
2022/08/07 02:13:31;;;;;;;;;3.33;3.33;;;;;20.79;42.43;102132.03;5091621;27;45451;-68
2022/08/07 02:15:59;;;;;;;;;6.00;6.00;;;;;20.82;42.46;102141.84;5084834;27;45311;-68
2022/08/07 02:18:27;;;;;;;;;4.00;4.00;;;;;20.84;42.08;102140.63;5093906;27;45432;-68
2022/08/07 02:20:54;;;;;;;;;3.00;3.00;;;;;20.92;42.12;102143.34;5093051;27;45300;-68
2022/08/07 02:23:19;;;;;;;;;5.00;5.00;;;;;20.59;43.51;102136.28;5076684;27;47147;-68
2022/08/07 02:25:46;;;;;;;;;5.00;5.00;;;;;20.56;43.86;102133.88;5095003;27;45425;-67
2022/08/07 02:28:14;;;;;;;;;5.00;5.00;;;;;20.55;43.75;102134.91;5073784;27;45557;-67
2022/08/07 02:30:41;;;;;;;;;4.00;4.00;;;;;20.54;43.70;102122.13;5094583;27;45397;-68
2022/08/07 02:33:08;;;;;;;;;6.00;4.33;;;;;20.44;43.79;102124.28;5090911;27;45877;-68
2022/08/07 02:35:35;;;;;;;;;4.67;4.00;;;;;20.51;43.84;102125.28;5097240;27;45255;-68
2022/08/07 02:38:03;;;;;;;;;7.00;4.00;;;;;20.33;44.51;102124.63;5089926;27;45675;-68
2022/08/07 02:40:30;;;;;;;;;5.00;5.00;;;;;20.27;44.99;102134.47;5093109;27;45615;-68
2022/08/07 02:42:57;;;;;;;;;5.00;5.00;;;;;20.28;44.75;102127.06;5088953;27;46276;-68
2022/08/07 02:45:26;;;;;;;;;4.00;4.00;;;;;20.21;45.23;102115.88;5098747;27;46426;-68
2022/08/07 02:47:52;;;;;;;;;4.33;4.33;;;;;20.17;45.65;102122.78;5096200;27;45408;-67
2022/08/07 02:50:18;;;;;;;;;1.00;1.00;;;;;20.19;45.80;102127.09;5095128;27;46266;-67
2022/08/07 02:52:55;;;;;;;;;4.67;4.00;;;;;20.14;45.57;102126.78;5088388;27;46186;-67
2022/08/07 02:55:24;;;;;;;;;4.00;4.00;;;;;19.91;46.84;102103.72;5088785;27;45585;-68
2022/08/07 02:57:53;;;;;;;;;8.00;5.33;;;;;19.97;45.96;102114.06;5089347;27;45458;-68
2022/08/07 03:00:18;;;;;;;;;5.00;5.00;;;;;19.88;46.71;102119.75;5090423;27;45690;-68
2022/08/07 03:02:47;;;;;;;;;4.67;4.67;;;;;19.86;47.21;102113.59;5091137;27;45446;-67
2022/08/07 03:05:14;;;;;;;;;3.00;3.00;;;;;19.97;46.83;102107.69;5090439;27;45423;-68
2022/08/07 03:07:40;;;;;;;;;4.00;4.00;;;;;19.97;46.78;102103.03;5087907;27;45313;-68
2022/08/07 03:10:08;;;;;;;;;5.00;5.00;;;;;19.92;47.11;102110.13;5087524;27;45417;-68
2022/08/07 03:12:35;;;;;;;;;4.67;4.67;;;;;20.03;46.53;102107.81;5086614;27;46981;-68
2022/08/07 03:15:02;;;;;;;;;6.33;5.00;;;;;20.08;46.59;102110.06;5086179;27;45369;-68
2022/08/07 03:17:28;;;;;;;;;5.00;5.00;;;;;20.10;46.79;102107.97;5089611;27;45447;-68
2022/08/07 03:19:53;;;;;;;;;5.33;5.00;;;;;20.03;46.93;102102.31;5098867;27;45475;-68
2022/08/07 03:22:21;;;;;;;;;5.00;5.00;;;;;20.04;46.05;102104.03;5087119;27;45339;-68
2022/08/07 03:24:47;;;;;;;;;4.00;4.00;;;;;20.07;46.78;102103.69;5093103;27;45420;-68
2022/08/07 03:27:14;;;;;;;;;5.00;5.00;;;;;19.98;46.92;102101.13;5100198;27;45401;-68
2022/08/07 03:29:46;;;;;;;;;5.00;5.00;;;;;20.03;47.24;102109.72;5076940;27;45254;-68
2022/08/07 03:32:13;;;;;;;;;5.00;5.00;;;;;19.95;47.45;102110.59;5085580;27;45402;-67
2022/08/07 03:34:41;;;;;;;;;5.33;5.33;;;;;19.90;48.14;102101.16;5100196;27;45259;-68
2022/08/07 03:37:09;;;;;;;;;5.00;5.00;;;;;19.92;48.01;102113.75;5074213;27;45351;-68
2022/08/07 03:39:37;;;;;;;;;7.00;5.33;;;;;19.88;47.67;102101.31;5087286;27;45499;-68
2022/08/07 03:42:03;;;;;;;;;6.67;6.00;;;;;19.89;47.97;102115.97;5091783;27;46276;-68
2022/08/07 03:44:30;;;;;;;;;4.00;4.00;;;;;19.90;47.98;102104.78;5090187;27;45345;-68
2022/08/07 03:46:56;;;;;;;;;7.00;5.00;;;;;19.78;48.41;102117.22;5085568;27;45406;-68
2022/08/07 03:49:22;;;;;;;;;7.00;7.00;;;;;19.67;48.90;102103.78;5089450;27;45367;-68
2022/08/07 03:51:48;;;;;;;;;5.67;3.33;;;;;19.71;48.42;102117.06;5084081;27;46528;-68
2022/08/07 03:54:14;;;;;;;;;6.00;6.00;;;;;19.67;49.20;102112.91;5089350;27;45556;-68
2022/08/07 03:56:41;;;;;;;;;5.33;5.33;;;;;19.73;48.87;102111.34;5093017;27;45254;-68
2022/08/07 03:59:10;;;;;;;;;4.00;4.00;;;;;19.79;48.94;102118.94;5097927;27;45341;-68
2022/08/07 04:01:40;;;;;;;;;5.00;5.00;;;;;19.82;48.65;102118.56;5097545;27;45649;-68
2022/08/07 04:04:05;;;;;;;;;5.33;5.33;;;;;19.84;48.21;102124.78;5091302;27;45432;-68
2022/08/07 04:06:32;;;;;;;;;6.00;4.00;;;;;19.76;48.90;102111.00;5093431;27;45486;-68
2022/08/07 04:08:58;;;;;;;;;3.67;3.67;;;;;19.63;49.19;102103.28;5095653;27;45235;-67
2022/08/07 04:11:24;;;;;;;;;5.00;5.00;;;;;19.65;49.74;102109.47;5083013;27;46543;-68
2022/08/07 04:13:50;;;;;;;;;5.00;5.00;;;;;19.73;48.92;102114.97;5095960;27;45255;-68
2022/08/07 04:16:15;;;;;;;;;5.00;5.00;;;;;19.77;47.83;102118.25;5083401;27;45366;-67
2022/08/07 04:18:41;;;;;;;;;8.00;5.00;;;;;19.74;48.81;102107.56;5092809;27;45400;-68
2022/08/07 04:21:06;;;;;;;;;5.00;5.00;;;;;19.65;49.25;102106.72;5084927;27;46564;-67
2022/08/07 04:23:33;;;;;;;;;5.00;5.00;;;;;19.75;48.34;102103.75;5090177;27;45368;-67
2022/08/07 04:25:58;;;;;;;;;5.00;5.00;;;;;19.68;49.74;102113.78;5073963;28;46806;-68
2022/08/07 04:28:23;;;;;;;;;3.67;3.00;;;;;19.66;48.41;102110.31;5097525;27;45623;-68
2022/08/07 04:30:50;;;;;;;;;3.67;3.67;;;;;19.75;48.55;102121.19;5097957;27;46433;-67
2022/08/07 04:33:17;;;;;;;;;5.00;4.33;;;;;19.72;48.57;102115.16;5094276;27;45383;-67
2022/08/07 04:35:46;;;;;;;;;9.00;6.00;;;;;19.58;49.79;102121.41;5093639;27;45321;-67
2022/08/07 04:38:12;;;;;;;;;5.00;5.00;;;;;19.36;51.07;102114.63;5092692;27;45511;-68
2022/08/07 04:40:39;;;;;;;;;5.00;5.00;;;;;19.44;50.05;102115.50;5090598;27;45345;-68
2022/08/07 04:43:05;;;;;;;;;4.67;4.67;;;;;19.55;50.06;102118.97;5086593;27;45440;-68
2022/08/07 04:45:42;;;;;;;;;5.67;5.67;;;;;19.60;50.01;102122.06;5093129;27;45378;-68
2022/08/07 04:48:31;;;;;;;;;5.00;5.00;;;;;19.69;50.02;102118.25;5088499;27;45696;-68
2022/08/07 04:51:04;;;;;;;;;4.00;4.00;;;;;19.65;48.73;102101.19;5087539;27;45496;-68
2022/08/07 04:53:40;;;;;;;;;8.33;4.67;;;;;19.76;49.22;102116.53;5091602;27;45256;-68
2022/08/07 04:56:18;;;;;;;;;5.67;5.00;;;;;19.80;49.15;102109.59;5081234;27;45389;-68
2022/08/07 04:58:47;;;;;;;;;4.33;4.00;;;;;19.84;49.93;102119.28;5094990;27;45407;-68
2022/08/07 05:01:21;;;;;;;;;4.00;4.00;;;;;19.84;49.75;102130.31;5101123;27;46391;-68
2022/08/07 05:03:59;;;;;;;;;4.33;4.00;;;;;19.76;50.20;102128.41;5092255;27;45444;-68
2022/08/07 05:06:34;;;;;;;;;4.00;4.00;;;;;19.86;49.79;102130.13;5088270;27;45285;-68
2022/08/07 05:09:31;;;;;;;;;4.00;4.00;;;;;19.85;49.45;102133.91;5096821;27;45270;-67
2022/08/07 05:12:03;;;;;;;;;6.33;5.00;;;;;19.83;49.68;102134.09;5083956;27;46469;-68
2022/08/07 05:14:37;;;;;;;;;5.67;4.00;;;;;19.80;49.82;102137.19;5094217;27;45461;-68
2022/08/07 05:17:07;;;;;;;;;5.00;5.00;;;;;19.95;49.29;102140.94;5088806;27;45499;-68
2022/08/07 05:19:41;;;;;;;;;7.00;4.00;;;;;19.87;50.14;102143.72;5097894;27;45521;-68
2022/08/07 05:22:08;;;;;;;;;6.00;4.00;;;;;19.93;49.49;102143.06;5084450;27;45495;-68
2022/08/07 05:24:36;;;;;;;;;4.67;4.33;;;;;19.95;49.94;102148.38;5088996;27;45267;-68
2022/08/07 05:27:04;;;;;;;;;4.33;4.00;;;;;20.12;49.48;102150.91;5088564;27;45448;-68
2022/08/07 05:29:31;;;;;;;;;4.33;4.33;;;;;20.20;49.42;102150.91;5096769;27;45144;-68
2022/08/07 05:31:58;;;;;;;;;5.67;3.00;;;;;20.36;48.44;102160.19;5070360;27;48458;-67
2022/08/07 05:34:25;;;;;;;;;5.33;4.33;;;;;20.27;48.43;102156.56;5105747;27;45474;-68
2022/08/07 05:36:52;;;;;;;;;3.00;3.00;;;;;20.41;48.74;102168.78;5095823;27;45437;-68
2022/08/07 05:39:19;;;;;;;;;4.00;4.00;;;;;20.56;48.06;102164.25;5093755;27;45413;-68
2022/08/07 05:41:47;;;;;;;;;3.33;3.33;;;;;20.63;47.90;102170.78;5095792;27;46311;-68
2022/08/07 05:44:14;;;;;;;;;3.00;3.00;;;;;20.58;48.07;102167.69;5089767;27;45467;-68
2022/08/07 05:46:41;;;;;;;;;6.00;4.00;;;;;21.15;46.71;102164.59;5085427;27;45429;-68
2022/08/07 05:49:08;;;;;;;;;3.00;3.00;;;;;22.22;43.92;102156.03;5092212;27;45306;-68
2022/08/07 05:51:33;;;;;;;;;4.00;4.00;;;;;23.61;39.93;102155.81;5095760;27;45522;-68
2022/08/07 05:54:00;;;;;;;;;6.67;4.67;;;;;22.80;41.44;102152.38;5096435;27;45322;-68
2022/08/07 05:56:27;;;;;;;;;6.00;4.33;;;;;22.33;42.03;102158.34;5085660;27;45316;-68
2022/08/07 05:58:53;;;;;;;;;5.00;3.00;;;;;22.22;42.96;102147.75;5096928;27;45309;-68
2022/08/07 06:01:20;;;;;;;;;4.67;4.33;;;;;21.95;44.29;102162.19;5084845;27;46146;-68
2022/08/07 06:03:50;;;;;;;;;3.00;3.00;;;;;21.97;44.03;102165.69;5094709;27;45362;-68
2022/08/07 06:06:16;;;;;;;;;4.67;4.00;;;;;21.93;43.36;102161.53;5076550;28;45508;-68
2022/08/07 06:08:42;;;;;;;;;4.67;3.67;;;;;22.07;43.35;102166.25;5078833;27;45477;-68
2022/08/07 06:11:08;;;;;;;;;4.00;4.00;;;;;22.11;43.44;102156.53;5085144;27;45522;-68
2022/08/07 06:13:37;;;;;;;;;5.00;4.00;;;;;22.19;43.03;102161.97;5095413;27;45255;-68
2022/08/07 06:16:05;;;;;;;;;5.33;4.33;;;;;22.32;42.36;102153.00;5065882;28;45354;-68
2022/08/07 06:18:31;;;;;;;;;5.00;5.00;;;;;22.36;42.87;102163.50;5090454;27;45255;-68
2022/08/07 06:20:59;;;;;;;;;3.00;3.00;;;;;22.50;42.37;102168.16;5088329;27;46390;-68
2022/08/07 06:23:24;;;;;;;;;5.00;3.00;;;;;22.52;42.20;102159.66;5097003;27;45441;-68
2022/08/07 06:25:50;;;;;;;;;4.00;4.00;;;;;22.90;41.77;102152.09;5083216;27;45333;-67
2022/08/07 06:28:15;;;;;;;;;3.00;3.00;;;;;23.24;40.52;102166.09;5093326;27;45376;-68
2022/08/07 06:30:41;;;;;;;;;4.00;2.67;;;;;23.35;40.53;102163.88;5086055;27;45537;-68
2022/08/07 06:33:07;;;;;;;;;3.00;3.00;;;;;23.09;40.01;102156.97;5086487;27;45327;-67
2022/08/07 06:35:36;;;;;;;;;8.33;5.33;;;;;23.06;40.78;102157.38;5087985;27;45330;-67
2022/08/07 06:38:03;;;;;;;;;3.00;3.00;;;;;22.97;40.78;102154.94;5091633;27;45378;-67
2022/08/07 06:40:33;;;;;;;;;6.00;6.00;;;;;22.64;41.05;102160.06;5088750;27;45609;-67
2022/08/07 06:43:01;;;;;;;;;5.00;4.00;;;;;22.46;41.92;102153.00;5086692;27;45478;-67
2022/08/07 06:45:28;;;;;;;;;3.00;3.00;;;;;22.12;42.51;102141.66;5093605;27;45339;-67
2022/08/07 06:47:54;;;;;;;;;5.00;3.33;;;;;22.13;42.65;102154.44;5081075;28;45573;-68
2022/08/07 06:50:20;;;;;;;;;4.33;3.67;;;;;22.18;42.87;102163.03;5098249;27;46182;-67
2022/08/07 06:52:51;;;;;;;;;4.00;4.00;;;;;22.27;43.04;102149.97;5090760;27;45381;-67
2022/08/07 06:55:22;;;;;;;;;5.00;4.00;;;;;22.27;42.83;102148.06;5095512;27;45425;-67
2022/08/07 06:57:49;;;;;;;;;4.33;4.33;;;;;22.62;42.69;102159.38;5088972;27;45435;-67
2022/08/07 07:00:16;;;;;;;;;3.00;3.00;;;;;22.65;42.10;102159.81;5091566;27;45329;-67
2022/08/07 07:02:43;;;;;;;;;3.67;3.33;;;;;22.62;42.26;102151.06;5089365;27;45507;-67
2022/08/07 07:05:09;;;;;;;;;6.67;4.33;;;;;22.68;41.29;102159.44;5090861;27;45260;-67
2022/08/07 07:07:34;;;;;;;;;5.33;3.33;;;;;22.55;42.15;102158.44;5086782;27;45457;-67
2022/08/07 07:09:59;;;;;;;;;7.00;3.67;;;;;22.63;42.03;102158.31;5087067;27;46316;-67
2022/08/07 07:12:39;;;;;;;;;4.00;4.00;;;;;22.99;41.30;102159.22;5088625;27;45349;-67
2022/08/07 07:15:16;;;;;;;;;3.00;2.67;;;;;23.04;41.14;102156.72;5073778;28;45306;-67
2022/08/07 07:17:48;;;;;;;;;4.00;4.00;;;;;23.31;40.48;102163.41;5085991;27;45494;-68
2022/08/07 07:20:26;;;;;;;;;3.33;3.33;;;;;22.95;40.64;102160.66;5102238;27;46200;-67
2022/08/07 07:22:53;;;;;;;;;4.67;4.67;;;;;23.20;40.30;102164.78;5088636;27;45520;-67
2022/08/07 07:25:19;;;;;;;;;3.67;2.33;;;;;23.37;40.41;102161.78;5101200;27;45492;-67
2022/08/07 07:28:15;;;;;;;;;4.00;4.00;;;;;23.55;40.25;102168.59;5087487;27;45329;-67
2022/08/07 07:30:49;;;;;;;;;3.00;3.00;;;;;23.58;39.94;102161.78;5058319;27;45332;-67
2022/08/07 07:33:16;;;;;;;;;3.00;3.00;;;;;23.48;39.58;102155.69;5091243;27;45500;-67
2022/08/07 07:35:44;;;;;;;;;5.00;3.00;;;;;23.23;39.54;102158.84;5089952;27;45315;-67
2022/08/07 07:38:12;;;;;;;;;3.00;3.00;;;;;23.35;38.81;102159.19;5088505;27;45342;-68
2022/08/07 07:40:40;;;;;;;;;2.00;2.00;;;;;23.24;39.83;102157.78;5081563;27;47036;-67
2022/08/07 07:43:07;;;;;;;;;1.00;1.00;;;;;23.41;39.65;102140.88;5091913;27;45492;-67
2022/08/07 07:45:32;;;;;;;;;2.67;2.67;;;;;23.73;38.87;102142.28;5089639;27;45361;-69
2022/08/07 07:48:00;;;;;;;;;2.00;2.00;;;;;23.55;39.08;102145.53;5089664;27;45302;-67
2022/08/07 07:50:28;;;;;;;;;3.33;3.33;;;;;23.77;38.68;102144.44;5073028;28;47818;-67
2022/08/07 07:52:55;;;;;;;;;1.00;1.00;;;;;23.80;39.15;102144.03;5087962;27;45323;-67
2022/08/07 07:55:23;;;;;;;;;4.00;2.67;;;;;23.68;37.91;102145.63;5088548;27;46688;-67
2022/08/07 07:57:49;;;;;;;;;2.00;2.00;;;;;23.68;37.47;102145.63;5069676;27;45243;-67
2022/08/07 08:00:16;;;;;;;;;4.00;4.00;;;;;24.08;37.30;102151.50;5070923;27;47355;-67
2022/08/07 08:02:45;;;;;;;;;3.33;2.33;;;;;24.12;36.88;102144.47;5086024;27;45432;-67
2022/08/07 08:05:13;;;;;;;;;3.67;3.67;;;;;24.24;36.31;102151.22;5096088;27;45452;-67
2022/08/07 08:07:39;;;;;;;;;2.00;2.00;;;;;24.05;36.83;102136.94;5101609;27;45289;-67
2022/08/07 08:10:07;;;;;;;;;2.33;2.33;;;;;24.34;36.48;102137.78;5097035;27;45266;-67
2022/08/07 08:12:34;;;;;;;;;4.00;2.67;;;;;24.62;36.36;102130.22;5087930;27;45346;-67
2022/08/07 08:15:00;;;;;;;;;3.00;3.00;;;;;24.92;36.02;102127.16;5098006;27;45424;-67
2022/08/07 08:17:27;;;;;;;;;1.00;1.00;;;;;24.46;36.06;102138.09;5085758;27;45516;-67
2022/08/07 08:19:57;;;;;;;;;3.67;3.00;;;;;24.68;35.69;102132.19;5090228;27;45432;-68
2022/08/07 08:27:56;;;;;;;;;2.00;2.00;;;;;25.16;34.61;102123.78;5088648;27;45462;-68
2022/08/07 08:30:23;;;;;;;;;2.00;2.00;;;;;25.02;34.68;102127.63;5090887;27;45236;-67
2022/08/07 08:32:55;;;;;;;;;3.00;3.00;;;;;25.22;33.89;102117.38;5084586;27;45448;-68
2022/08/07 08:35:24;;;;;;;;;4.00;4.00;;;;;25.53;33.55;102123.19;5091276;27;45536;-67
2022/08/07 08:37:56;;;;;;;;;20.25;18.50;;;;;25.68;33.22;102122.16;5087612;27;45322;-67
2022/08/07 08:40:36;;;;;;;;;4.00;2.67;;;;;26.01;31.96;102122.97;5098858;27;45538;-67
2022/08/07 08:43:07;;;;;;;;;2.00;2.00;;;;;26.21;31.25;102128.50;5088022;27;45393;-67
2022/08/07 08:45:57;;;;;;;;;3.67;3.00;;;;;26.27;31.14;102111.81;5088507;27;45334;-67
2022/08/07 08:48:54;;;;;;;;;2.00;2.00;;;;;26.49;31.53;102112.38;5091572;27;45379;-67
2022/08/07 08:51:36;;;;;;;;;4.00;2.00;;;;;26.38;30.17;102114.97;5082162;28;47000;-67
2022/08/07 08:54:26;;;;;;;;;2.00;2.00;;;;;26.72;30.22;102109.91;5096437;27;45405;-68
2022/08/07 08:56:56;;;;;;;;;1.33;1.33;;;;;26.65;30.26;102103.50;5089952;27;45472;-67
2022/08/07 08:59:28;;;;;;;;;1.00;1.00;;;;;27.16;29.76;102102.59;5095857;27;45564;-67
2022/08/07 09:02:24;;;;;;;;;2.00;2.00;;;;;27.45;28.21;102098.28;5086082;27;45501;-67
2022/08/07 09:05:11;;;;;;;;;1.00;1.00;;;;;27.65;28.27;102098.13;5086133;28;45468;-68
2022/08/07 09:07:54;;;;;;;;;1.00;1.00;;;;;27.66;28.52;102097.91;5088600;27;45484;-68
2022/08/07 09:10:28;;;;;;;;;3.67;1.00;;;;;27.40;28.12;102100.88;5099153;27;45317;-68
2022/08/07 09:13:24;;;;;;;;;1.33;1.33;;;;;27.76;27.34;102095.44;5097359;27;45724;-68
2022/08/07 09:16:07;;;;;;;;;2.00;2.00;;;;;28.00;27.22;102102.06;5094595;27;45323;-68
2022/08/07 09:18:48;;;;;;;;;3.00;3.00;;;;;28.05;26.10;102101.41;5088544;27;45380;-68
2022/08/07 09:21:41;;;;;;;;;3.33;3.33;;;;;28.53;26.28;102099.56;5093615;27;45400;-68
2022/08/07 09:24:27;;;;;;;;;2.00;2.00;;;;;28.71;25.05;102115.47;5094824;27;45492;-68
2022/08/07 09:27:14;;;;;;;;;5.00;4.33;;;;;28.61;25.48;102103.97;5096803;27;45392;-68
2022/08/07 09:29:48;;;;;;;;;1.67;1.67;;;;;29.09;25.23;102100.31;5075076;28;45508;-68
2022/08/07 09:32:14;;;;;;;;;2.67;2.67;;;;;28.90;24.84;102097.56;5088377;27;45434;-68
2022/08/07 09:34:57;;;;;;;;;2.00;2.00;;;;;29.24;24.83;102104.38;5093048;27;45298;-68
2022/08/07 09:37:36;;;;;;;;;3.00;3.00;;;;;29.64;24.90;102103.75;5088310;27;45518;-68
2022/08/07 09:40:20;;;;;;;;;1.67;1.67;;;;;29.85;24.59;102096.69;5084207;27;45211;-68
2022/08/07 09:42:57;;;;;;;;;3.00;3.00;;;;;29.84;24.02;102098.63;5076261;27;45453;-68
2022/08/07 09:45:44;;;;;;;;;3.00;3.00;;;;;29.85;23.79;102093.88;5105676;27;46466;-68
2022/08/07 09:48:34;;;;;;;;;3.00;3.00;;;;;29.54;24.47;102104.34;5102895;27;45448;-68
2022/08/07 09:51:48;;;;;;;;;2.33;2.33;;;;;29.28;24.37;102099.16;5090027;27;45515;-68
2022/08/07 09:54:39;;;;;;;;;2.00;2.00;;;;;29.32;25.00;102091.97;5075416;27;45567;-68
2022/08/07 09:57:37;;;;;;;;;3.33;3.33;;;;;29.42;24.03;102097.88;5087495;27;45540;-68
2022/08/07 10:00:10;;;;;;;;;4.00;3.00;;;;;29.15;24.73;102094.59;5075847;27;45364;-68
2022/08/07 10:02:56;;;;;;;;;3.67;3.33;;;;;29.10;24.38;102096.41;5098072;27;45445;-68
2022/08/07 10:05:43;;;;;;;;;3.67;3.67;;;;;29.26;25.14;102079.78;5086161;27;45491;-68
2022/08/07 10:08:40;;;;;;;;;3.00;3.00;;;;;29.89;24.53;102078.28;5091087;27;45626;-68
2022/08/07 10:11:26;;;;;;;;;2.00;2.00;;;;;29.89;23.76;102079.13;5084898;27;45514;-68
2022/08/07 10:14:13;;;;;;;;;3.00;3.00;;;;;30.14;23.39;102068.53;5091042;27;45317;-68
2022/08/07 10:17:16;;;;;;;;;4.00;4.00;;;;;30.46;23.42;102071.78;5092133;27;45548;-68
2022/08/07 10:19:55;;;;;;;;;5.00;5.00;;;;;30.52;23.20;102062.38;5099216;27;46221;-68
2022/08/07 10:22:57;;;;;;;;;2.00;2.00;;;;;31.24;22.87;102064.63;5087837;27;45357;-69
2022/08/07 10:25:27;;;;;;;;;4.67;3.33;;;;;31.70;22.06;102055.03;5102832;27;45435;-69
2022/08/07 10:28:04;;;;;;;;;4.00;4.00;;;;;32.03;21.42;102054.94;5098059;27;45471;-69
2022/08/07 10:30:42;;;;;;;;;2.33;2.33;;;;;32.12;21.86;102052.53;5093182;27;45459;-69
2022/08/07 10:33:42;;;;;;;;;2.67;2.67;;;;;32.46;21.90;102051.31;5092185;27;45512;-69
2022/08/07 10:36:51;;;;;;;;;4.00;4.00;;;;;32.00;21.37;102046.19;5090202;27;45335;-69
2022/08/07 10:39:58;;;;;;;;;4.00;4.00;;;;;32.10;21.79;102052.78;5074945;27;45596;-69
2022/08/07 10:42:34;;;;;;;;;4.33;3.00;;;;;31.35;22.69;102055.25;5064691;27;45517;-69
2022/08/07 10:45:10;;;;;;;;;4.67;3.00;;;;;31.43;22.38;102052.00;5090806;27;45337;-69
2022/08/07 10:47:41;;;;;;;;;2.00;2.00;;;;;31.28;21.92;102049.78;5068615;28;45436;-69
2022/08/07 10:50:18;;;;;;;;;5.00;5.00;;;;;31.55;22.22;102049.97;5076696;28;45396;-69
2022/08/07 10:53:08;;;;;;;;;4.33;4.33;;;;;32.07;21.53;102035.59;5092215;27;45520;-69
2022/08/07 10:55:46;;;;;;;;;2.67;2.67;;;;;32.01;21.82;102036.63;5084764;27;45357;-69
2022/08/07 10:58:39;;;;;;;;;3.00;3.00;;;;;32.44;21.06;102047.91;5098978;27;45564;-69
2022/08/07 11:01:23;;;;;;;;;4.33;3.33;;;;;31.77;21.88;102040.78;5084705;27;45350;-68
2022/08/07 11:04:02;;;;;;;;;3.00;3.00;;;;;31.06;22.37;102028.34;5097197;27;45650;-69
2022/08/07 11:06:40;;;;;;;;;3.33;3.00;;;;;31.22;22.00;102021.88;5081653;27;45530;-68
2022/08/07 11:09:17;;;;;;;;;6.67;4.67;;;;;31.16;22.16;102022.91;5099867;27;45674;-68
2022/08/07 11:11:56;;;;;;;;;1.00;1.00;;;;;31.29;22.03;102020.59;5097308;27;45438;-70
2022/08/07 11:14:32;;;;;;;;;12.00;10.00;;;;;31.94;21.75;102010.66;5090476;27;46386;-68
2022/08/07 11:17:04;;;;;;;;;18.75;15.75;;;;;32.85;20.54;102011.81;5088479;27;45432;-68
2022/08/07 11:19:59;;;;;;;;;7.00;7.00;;;;;32.70;20.74;102003.22;5078636;27;45396;-68
2022/08/07 11:22:29;;;;;;;;;11.25;9.25;;;;;33.02;20.42;102009.69;5087005;27;45427;-69
2022/08/07 11:25:16;;;;;;;;;4.33;4.33;;;;;32.81;21.06;101996.56;5081124;27;47980;-70
2022/08/07 11:28:04;;;;;;;;;10.33;8.67;;;;;33.51;20.10;101992.69;5097096;27;45507;-69
2022/08/07 11:30:50;;;;;;;;;4.67;4.67;;;;;32.62;20.57;101986.78;5098884;27;45396;-69
2022/08/07 11:33:53;;;;;;;;;4.00;4.00;;;;;33.00;20.09;102000.69;5089030;27;45433;-69
2022/08/07 11:36:40;;;;;;;;;3.33;3.33;;;;;33.76;19.31;101990.03;5086378;27;48078;-69
2022/08/07 11:39:59;;;;;;;;;3.33;3.33;;;;;33.63;20.37;101996.13;5090833;27;45392;-69
2022/08/07 11:42:57;;;;;;;;;2.33;2.00;;;;;33.25;20.25;101991.63;5010306;28;45521;-69
2022/08/07 11:46:00;;;;;;;;;3.00;3.00;;;;;33.19;20.03;101992.69;5086417;27;45309;-69
2022/08/07 11:49:01;;;;;;;;;3.00;3.00;;;;;33.87;19.88;101972.06;5076303;27;46919;-69
2022/08/07 11:51:45;;;;;;;;;4.00;4.00;;;;;34.78;18.83;101984.81;5085183;27;45295;-69
2022/08/07 11:54:32;;;;;;;;;4.00;4.00;;;;;34.59;18.54;101965.56;5097877;27;45419;-69